createdAt,value
2018-05-16T00:01:19.885Z,24.90
2018-05-16T00:03:47.448Z,24.90
2018-05-16T00:06:15.129Z,24.90
2018-05-16T00:08:42.701Z,24.90
2018-05-16T00:11:10.185Z,24.90
2018-05-16T00:13:37.670Z,24.90
2018-05-16T00:16:05.232Z,24.90
2018-05-16T00:18:32.834Z,24.90
2018-05-16T00:21:01.073Z,24.90
2018-05-16T00:23:28.636Z,24.90
2018-05-16T00:25:56.216Z,24.90
2018-05-16T00:28:23.793Z,24.90
2018-05-16T00:30:51.369Z,24.90
2018-05-16T00:33:18.940Z,24.80
2018-05-16T00:35:46.417Z,24.80
2018-05-16T00:38:14.018Z,24.80
2018-05-16T00:40:41.541Z,24.80
2018-05-16T00:43:09.016Z,24.80
2018-05-16T00:45:36.517Z,24.80
2018-05-16T00:48:03.992Z,24.80
2018-05-16T00:50:31.524Z,24.80
2018-05-16T00:52:59.076Z,24.80
2018-05-16T00:55:27.305Z,24.80
2018-05-16T00:57:54.868Z,24.80
2018-05-16T01:00:22.489Z,24.80
2018-05-16T01:02:50.728Z,24.80
2018-05-16T01:05:18.260Z,24.80
2018-05-16T01:07:46.574Z,24.80
2018-05-16T01:10:14.166Z,24.80
2018-05-16T01:12:41.663Z,24.80
2018-05-16T01:15:09.169Z,24.80
2018-05-16T01:17:36.657Z,24.80
2018-05-16T01:20:04.120Z,24.80
2018-05-16T01:22:31.614Z,24.80
2018-05-16T01:24:59.098Z,24.80
2018-05-16T01:27:26.654Z,24.70
2018-05-16T01:29:54.211Z,24.70
2018-05-16T01:32:21.717Z,24.70
2018-05-16T01:34:49.256Z,24.70
2018-05-16T01:37:17.424Z,24.70
2018-05-16T01:39:44.922Z,24.80
2018-05-16T01:42:12.400Z,24.70
2018-05-16T01:44:39.898Z,24.80
2018-05-16T01:47:07.431Z,24.80
2018-05-16T01:49:35.012Z,24.80
2018-05-16T01:52:02.502Z,24.80
2018-05-16T01:54:30.058Z,24.80
2018-05-16T01:56:57.545Z,24.80
2018-05-16T01:59:25.085Z,24.80
2018-05-16T02:01:52.592Z,24.70
2018-05-16T02:04:20.134Z,24.80
2018-05-16T02:06:47.705Z,24.70
2018-05-16T02:09:15.207Z,24.70
2018-05-16T02:11:42.754Z,24.80
2018-05-16T02:14:10.281Z,24.80
2018-05-16T02:16:38.524Z,24.80
2018-05-16T02:19:05.993Z,24.70
2018-05-16T02:21:33.549Z,24.70
2018-05-16T02:24:01.033Z,24.70
2018-05-16T02:26:28.585Z,24.70
2018-05-16T02:28:56.152Z,24.70
2018-05-16T02:31:23.735Z,24.70
2018-05-16T02:33:51.233Z,24.70
2018-05-16T02:36:18.709Z,24.70
2018-05-16T02:38:46.181Z,24.70
2018-05-16T02:41:13.824Z,24.70
2018-05-16T02:43:41.317Z,24.70
2018-05-16T02:46:08.790Z,24.70
2018-05-16T02:48:36.345Z,24.70
2018-05-16T02:51:03.836Z,24.70
2018-05-16T02:53:31.302Z,24.70
2018-05-16T02:55:58.784Z,24.70
2018-05-16T02:58:26.248Z,24.70
2018-05-16T03:00:53.735Z,24.70
2018-05-16T03:03:22.075Z,24.70
2018-05-16T03:05:49.558Z,24.70
2018-05-16T03:08:17.044Z,24.70
2018-05-16T03:10:44.521Z,24.70
2018-05-16T03:13:12.807Z,24.70
2018-05-16T03:15:40.293Z,24.70
2018-05-16T03:18:08.569Z,24.70
2018-05-16T03:20:36.077Z,24.70
2018-05-16T03:23:03.550Z,24.70
2018-05-16T03:25:31.028Z,24.70
2018-05-16T03:27:58.510Z,24.70
2018-05-16T03:30:26.084Z,24.70
2018-05-16T03:32:53.660Z,24.60
2018-05-16T03:35:21.143Z,24.70
2018-05-16T03:37:48.640Z,24.60
2018-05-16T03:40:16.136Z,24.60
2018-05-16T03:42:43.641Z,24.60
2018-05-16T03:45:11.201Z,24.60
2018-05-16T03:47:38.784Z,24.60
2018-05-16T03:50:06.291Z,24.60
2018-05-16T03:52:33.770Z,24.60
2018-05-16T03:55:01.397Z,24.60
2018-05-16T03:57:40.758Z,24.60
2018-05-16T04:00:19.977Z,24.60
2018-05-16T04:02:59.364Z,24.60
2018-05-16T04:05:26.847Z,24.60
2018-05-16T04:07:54.402Z,24.60
2018-05-16T04:10:21.873Z,24.60
2018-05-16T04:12:49.369Z,24.60
2018-05-16T04:15:16.905Z,24.60
2018-05-16T04:17:44.400Z,24.60
2018-05-16T04:20:11.899Z,24.50
2018-05-16T04:22:40.137Z,24.60
2018-05-16T04:25:07.632Z,24.60
2018-05-16T04:27:35.130Z,24.50
2018-05-16T04:30:03.452Z,24.60
2018-05-16T04:32:30.929Z,24.60
2018-05-16T04:34:58.421Z,24.60
2018-05-16T04:37:25.895Z,24.60
2018-05-16T04:39:53.379Z,24.60
2018-05-16T04:42:20.881Z,24.60
2018-05-16T04:44:49.197Z,24.60
2018-05-16T04:47:16.839Z,24.60
2018-05-16T04:49:45.116Z,24.60
2018-05-16T04:52:13.455Z,24.60
2018-05-16T04:54:40.953Z,24.60
2018-05-16T04:57:08.424Z,24.60
2018-05-16T04:59:35.905Z,24.60
2018-05-16T05:02:04.252Z,24.60
2018-05-16T05:04:31.836Z,24.60
2018-05-16T05:06:59.313Z,24.60
2018-05-16T05:09:26.804Z,24.60
2018-05-16T05:11:55.844Z,24.60
2018-05-16T05:14:23.324Z,24.60
2018-05-16T05:16:50.872Z,24.60
2018-05-16T05:19:19.143Z,24.60
2018-05-16T05:21:46.672Z,24.60
2018-05-16T05:24:14.998Z,24.60
2018-05-16T05:26:42.477Z,24.50
2018-05-16T05:29:10.117Z,24.60
2018-05-16T05:31:37.775Z,24.60
2018-05-16T05:34:05.253Z,24.60
2018-05-16T05:36:32.827Z,24.60
2018-05-16T05:39:00.397Z,24.60
2018-05-16T05:41:28.421Z,24.60
2018-05-16T05:43:55.933Z,24.60
2018-05-16T05:46:24.160Z,24.60
2018-05-16T05:48:51.669Z,24.60
2018-05-16T05:51:20.015Z,24.60
2018-05-16T05:53:47.573Z,24.60
2018-05-16T05:56:15.138Z,24.60
2018-05-16T05:58:42.702Z,24.60
2018-05-16T06:01:10.190Z,24.60
2018-05-16T06:03:37.752Z,24.60
2018-05-16T06:06:05.301Z,24.60
2018-05-16T06:08:33.617Z,24.70
2018-05-16T06:11:01.197Z,24.60
2018-05-16T06:13:28.751Z,24.60
2018-05-16T06:15:57.009Z,24.60
2018-05-16T06:18:25.342Z,24.60
2018-05-16T06:20:52.818Z,24.60
2018-05-16T06:23:20.303Z,24.60
2018-05-16T06:25:47.868Z,24.60
2018-05-16T06:28:15.342Z,24.60
2018-05-16T06:30:42.838Z,24.60
2018-05-16T06:33:10.373Z,24.60
2018-05-16T06:35:38.124Z,24.60
2018-05-16T06:38:05.609Z,24.70
2018-05-16T06:40:33.197Z,24.60
2018-05-16T06:43:00.669Z,24.60
2018-05-16T06:45:28.181Z,24.70
2018-05-16T06:47:56.529Z,24.70
2018-05-16T06:50:24.025Z,24.70
2018-05-16T06:52:51.577Z,24.60
2018-05-16T06:55:19.141Z,24.60
2018-05-16T06:57:47.042Z,24.60
2018-05-16T07:00:14.538Z,24.60
2018-05-16T07:02:42.883Z,24.60
2018-05-16T07:05:10.368Z,24.70
2018-05-16T07:07:37.953Z,24.60
2018-05-16T07:10:05.456Z,24.60
2018-05-16T07:12:33.713Z,24.60
2018-05-16T07:15:01.259Z,24.60
2018-05-16T07:17:28.803Z,24.60
2018-05-16T07:19:57.037Z,24.70
2018-05-16T07:22:24.520Z,24.70
2018-05-16T07:24:52.049Z,24.70
2018-05-16T07:27:19.620Z,24.70
2018-05-16T07:29:47.091Z,24.70
2018-05-16T07:32:14.573Z,24.70
2018-05-16T07:34:42.853Z,24.70
2018-05-16T07:37:10.458Z,24.70
2018-05-16T07:39:37.948Z,24.70
2018-05-16T07:42:05.432Z,24.70
2018-05-16T07:44:33.675Z,24.70
2018-05-16T07:47:01.232Z,24.70
2018-05-16T07:49:28.704Z,24.70
2018-05-16T07:51:56.190Z,24.70
2018-05-16T07:54:23.665Z,24.70
2018-05-16T07:56:51.225Z,24.70
2018-05-16T07:59:18.709Z,24.70
2018-05-16T08:01:46.237Z,24.80
2018-05-16T08:04:13.745Z,24.80
2018-05-16T08:06:41.310Z,24.80
2018-05-16T08:09:08.849Z,24.70
2018-05-16T08:11:36.357Z,24.80
2018-05-16T08:14:03.909Z,24.80
2018-05-16T08:16:31.388Z,24.80
2018-05-16T08:18:58.870Z,24.80
2018-05-16T08:21:26.356Z,24.80
2018-05-16T08:23:53.892Z,24.80
2018-05-16T08:26:21.493Z,24.80
2018-05-16T08:28:48.983Z,24.80
2018-05-16T08:31:16.635Z,24.80
2018-05-16T08:33:44.096Z,24.80
2018-05-16T08:36:11.661Z,24.80
2018-05-16T08:38:39.221Z,24.80
2018-05-16T08:41:06.811Z,24.80
2018-05-16T08:43:34.377Z,24.80
2018-05-16T08:46:01.897Z,24.80
2018-05-16T08:48:30.151Z,24.90
2018-05-16T08:50:57.633Z,24.90
2018-05-16T08:53:25.169Z,24.90
2018-05-16T08:55:52.645Z,24.90
2018-05-16T08:58:20.208Z,24.90
2018-05-16T09:00:47.682Z,24.90
2018-05-16T09:03:15.174Z,24.90
2018-05-16T09:05:42.741Z,24.90
2018-05-16T09:08:10.394Z,24.90
2018-05-16T09:10:37.989Z,24.90
2018-05-16T09:13:05.581Z,25.00
2018-05-16T09:15:33.115Z,25.00
2018-05-16T09:18:00.658Z,25.00
2018-05-16T09:20:29.015Z,25.00
2018-05-16T09:22:56.493Z,25.00
2018-05-16T09:25:23.965Z,25.00
2018-05-16T09:27:51.459Z,25.00
2018-05-16T09:30:19.703Z,25.00
2018-05-16T09:32:47.261Z,25.00
2018-05-16T09:35:14.820Z,25.00
2018-05-16T09:37:42.392Z,25.10
2018-05-16T09:40:09.991Z,25.10
2018-05-16T09:42:37.532Z,25.10
2018-05-16T09:45:05.006Z,25.10
2018-05-16T09:47:32.489Z,25.10
2018-05-16T09:49:59.969Z,25.10
2018-05-16T09:52:27.437Z,25.10
2018-05-16T09:54:54.917Z,25.20
2018-05-16T09:57:22.392Z,25.20
2018-05-16T09:59:49.945Z,25.20
2018-05-16T10:02:17.427Z,25.20
2018-05-16T10:04:44.990Z,25.30
2018-05-16T10:07:12.601Z,25.30
2018-05-16T10:09:40.136Z,25.30
2018-05-16T10:12:07.612Z,25.30
2018-05-16T10:14:35.084Z,25.30
2018-05-16T10:17:02.733Z,25.30
2018-05-16T10:19:30.099Z,25.30
2018-05-16T10:21:57.664Z,25.30
2018-05-16T10:24:25.133Z,25.40
2018-05-16T10:26:52.612Z,25.40
2018-05-16T10:29:20.176Z,25.40
2018-05-16T10:31:47.755Z,25.40
2018-05-16T10:34:15.345Z,25.40
2018-05-16T10:36:42.854Z,25.40
2018-05-16T10:39:11.102Z,25.40
2018-05-16T10:41:38.603Z,25.40
2018-05-16T10:44:06.840Z,25.40
2018-05-16T10:46:34.433Z,25.40
2018-05-16T10:49:01.912Z,25.40
2018-05-16T10:51:29.458Z,25.40
2018-05-16T10:53:56.943Z,25.40
2018-05-16T10:56:24.413Z,25.40
2018-05-16T10:58:51.895Z,25.40
2018-05-16T11:01:19.441Z,25.40
2018-05-16T11:03:46.938Z,25.40
2018-05-16T11:06:14.841Z,25.40
2018-05-16T11:08:43.130Z,25.40
2018-05-16T11:11:10.613Z,25.40
2018-05-16T11:13:38.867Z,25.50
2018-05-16T11:16:06.340Z,25.40
2018-05-16T11:18:33.903Z,25.50
2018-05-16T11:21:01.380Z,25.50
2018-05-16T11:23:28.879Z,25.50
2018-05-16T11:25:57.118Z,25.50
2018-05-16T11:28:27.042Z,25.50
2018-05-16T11:30:54.540Z,25.50
2018-05-16T11:33:22.092Z,25.50
2018-05-16T11:35:49.737Z,25.50
2018-05-16T11:38:18.045Z,25.60
2018-05-16T11:40:45.536Z,25.50
2018-05-16T11:43:13.014Z,25.50
2018-05-16T11:45:40.515Z,25.60
2018-05-16T11:48:08.781Z,25.70
2018-05-16T11:50:36.297Z,25.60
2018-05-16T11:53:04.526Z,25.60
2018-05-16T11:55:32.009Z,25.60
2018-05-16T11:57:59.501Z,25.70
2018-05-16T12:00:27.921Z,25.70
2018-05-16T12:02:56.219Z,25.70
2018-05-16T12:05:24.423Z,25.70
2018-05-16T12:07:51.907Z,25.70
2018-05-16T12:10:19.403Z,25.70
2018-05-16T12:12:46.899Z,25.80
2018-05-16T12:15:15.128Z,25.80
2018-05-16T12:17:42.611Z,25.80
2018-05-16T12:20:10.107Z,25.80
2018-05-16T12:22:38.380Z,25.80
2018-05-16T12:25:05.856Z,25.80
2018-05-16T12:27:33.325Z,25.90
2018-05-16T12:30:00.853Z,25.90
2018-05-16T12:32:28.434Z,25.90
2018-05-16T12:34:55.961Z,25.90
2018-05-16T12:37:24.206Z,26.00
2018-05-16T12:39:51.820Z,25.90
2018-05-16T12:42:20.459Z,26.00
2018-05-16T12:44:47.960Z,26.00
2018-05-16T12:47:15.808Z,26.00
2018-05-16T12:49:43.384Z,26.00
2018-05-16T12:52:11.000Z,26.00
2018-05-16T12:54:39.265Z,26.10
2018-05-16T12:57:06.790Z,26.10
2018-05-16T12:59:35.024Z,26.10
2018-05-16T13:02:02.493Z,26.10
2018-05-16T13:04:29.984Z,26.10
2018-05-16T13:06:58.462Z,26.20
2018-05-16T13:09:25.924Z,26.20
2018-05-16T13:11:53.455Z,26.20
2018-05-16T13:14:21.685Z,26.20
2018-05-16T13:16:49.236Z,26.20
2018-05-16T13:19:16.745Z,26.20
2018-05-16T13:21:44.294Z,26.20
2018-05-16T13:24:12.613Z,26.30
2018-05-16T13:26:40.145Z,26.30
2018-05-16T13:29:07.697Z,26.30
2018-05-16T13:31:35.262Z,26.30
2018-05-16T13:34:02.729Z,26.30
2018-05-16T13:36:30.217Z,26.30
2018-05-16T13:38:57.736Z,26.30
2018-05-16T13:41:25.220Z,26.30
2018-05-16T13:43:53.561Z,26.40
2018-05-16T13:46:21.077Z,26.30
2018-05-16T13:48:48.548Z,26.40
2018-05-16T13:51:16.797Z,26.40
2018-05-16T13:53:44.319Z,26.40
2018-05-16T13:56:12.605Z,26.40
2018-05-16T13:58:40.300Z,26.30
2018-05-16T14:01:07.806Z,26.40
2018-05-16T14:03:35.286Z,26.40
2018-05-16T14:06:02.765Z,26.50
2018-05-16T14:08:30.304Z,26.50
2018-05-16T14:10:57.874Z,26.50
2018-05-16T14:13:25.357Z,26.50
2018-05-16T14:15:52.880Z,26.50
2018-05-16T14:18:20.328Z,26.50
2018-05-16T14:20:47.856Z,26.60
2018-05-16T14:23:15.441Z,26.60
2018-05-16T14:25:42.923Z,26.50
2018-05-16T14:28:10.460Z,26.50
2018-05-16T14:30:38.123Z,26.60
2018-05-16T14:33:05.606Z,26.60
2018-05-16T14:35:33.100Z,26.60
2018-05-16T14:38:00.661Z,26.60
2018-05-16T14:40:28.146Z,26.50
2018-05-16T14:42:55.726Z,26.60
2018-05-16T14:45:23.117Z,26.60
2018-05-16T14:47:51.371Z,26.50
2018-05-16T14:50:18.920Z,26.50
2018-05-16T14:52:46.501Z,26.50
2018-05-16T14:55:14.001Z,26.60
2018-05-16T14:57:41.554Z,26.60
2018-05-16T15:00:09.046Z,26.60
2018-05-16T15:02:36.714Z,26.60
2018-05-16T15:05:04.252Z,26.60
2018-05-16T15:07:31.958Z,26.60
2018-05-16T15:09:59.400Z,26.60
2018-05-16T15:12:26.902Z,26.60
2018-05-16T15:14:54.449Z,26.50
2018-05-16T15:17:21.985Z,26.60
2018-05-16T15:19:49.466Z,26.60
2018-05-16T15:22:16.949Z,26.50
2018-05-16T15:24:44.538Z,26.50
2018-05-16T15:27:12.106Z,26.50
2018-05-16T15:29:39.634Z,26.40
2018-05-16T15:32:07.909Z,26.40
2018-05-16T15:34:36.271Z,26.40
2018-05-16T15:37:03.775Z,26.40
2018-05-16T15:39:31.289Z,26.40
2018-05-16T15:41:58.896Z,26.30
2018-05-16T15:44:26.378Z,26.30
2018-05-16T15:46:54.382Z,26.30
2018-05-16T15:49:21.928Z,26.30
2018-05-16T15:51:49.396Z,26.30
2018-05-16T15:54:16.876Z,26.20
2018-05-16T15:56:45.175Z,26.20
2018-05-16T15:59:13.455Z,26.20
2018-05-16T16:01:41.020Z,26.20
2018-05-16T16:04:08.542Z,26.20
2018-05-16T16:06:36.210Z,26.20
2018-05-16T16:09:03.645Z,26.20
2018-05-16T16:11:31.893Z,26.20
2018-05-16T16:13:59.503Z,26.20
2018-05-16T16:16:26.933Z,26.20
2018-05-16T16:18:54.496Z,26.20
2018-05-16T16:21:21.994Z,26.20
2018-05-16T16:23:49.477Z,26.20
2018-05-16T16:26:17.093Z,26.10
2018-05-16T16:28:45.320Z,26.10
2018-05-16T16:31:12.897Z,26.10
2018-05-16T16:33:40.360Z,26.10
2018-05-16T16:36:07.919Z,26.10
2018-05-16T16:38:35.472Z,26.10
2018-05-16T16:41:03.009Z,26.10
2018-05-16T16:43:30.609Z,26.20
2018-05-16T16:45:58.925Z,26.10
2018-05-16T16:48:26.406Z,26.00
2018-05-16T16:50:53.973Z,26.10
2018-05-16T16:53:21.619Z,26.00
2018-05-16T16:55:49.112Z,26.00
2018-05-16T16:58:16.681Z,26.00
2018-05-16T17:00:44.265Z,26.00
2018-05-16T17:03:11.767Z,26.00
2018-05-16T17:05:39.251Z,26.00
2018-05-16T17:08:07.674Z,26.00
2018-05-16T17:10:35.191Z,26.00
2018-05-16T17:13:02.705Z,26.00
2018-05-16T17:15:31.021Z,26.00
2018-05-16T17:17:58.657Z,25.90
2018-05-16T17:20:26.983Z,26.00
2018-05-16T17:22:54.554Z,25.90
2018-05-16T17:25:22.122Z,26.00
2018-05-16T17:27:49.704Z,26.00
2018-05-16T17:30:17.192Z,26.00
2018-05-16T17:32:44.660Z,26.00
2018-05-16T17:35:12.134Z,25.90
2018-05-16T17:37:39.666Z,25.90
2018-05-16T17:40:07.925Z,25.90
2018-05-16T17:42:36.186Z,25.90
2018-05-16T17:45:03.678Z,25.80
2018-05-16T17:47:31.155Z,25.80
2018-05-16T17:49:59.405Z,25.80
2018-05-16T17:52:26.875Z,25.80
2018-05-16T17:54:54.341Z,25.80
2018-05-16T17:57:21.892Z,25.80
2018-05-16T17:59:49.373Z,25.80
2018-05-16T18:02:16.949Z,25.80
2018-05-16T18:04:44.507Z,25.80
2018-05-16T18:07:11.992Z,25.70
2018-05-16T18:09:39.489Z,25.70
2018-05-16T18:12:06.968Z,25.70
2018-05-16T18:17:39.426Z,25.70
2018-05-16T18:20:06.915Z,25.70
2018-05-16T18:22:34.508Z,25.70
2018-05-16T18:25:01.971Z,25.70
2018-05-16T18:27:29.452Z,25.70
2018-05-16T18:29:57.001Z,25.70
2018-05-16T18:32:24.477Z,25.70
2018-05-16T18:34:52.042Z,25.60
2018-05-16T18:37:19.537Z,25.60
2018-05-16T18:39:47.136Z,25.60
2018-05-16T18:42:14.573Z,25.60
2018-05-16T18:44:42.142Z,25.60
2018-05-16T18:47:09.640Z,25.60
2018-05-16T18:49:37.181Z,25.60
2018-05-16T18:52:04.736Z,25.50
2018-05-16T18:54:32.295Z,25.50
2018-05-16T18:56:59.765Z,25.50
2018-05-16T18:59:27.238Z,25.50
2018-05-16T19:01:54.714Z,25.50
2018-05-16T19:04:22.222Z,25.50
2018-05-16T19:06:49.708Z,25.50
2018-05-16T19:09:17.217Z,25.50
2018-05-16T19:11:45.610Z,25.50
2018-05-16T19:14:13.912Z,25.40
2018-05-16T19:16:41.517Z,25.40
2018-05-16T19:19:09.007Z,25.40
2018-05-16T19:21:36.485Z,25.40
2018-05-16T19:24:05.481Z,25.40
2018-05-16T19:26:33.021Z,25.50
2018-05-16T19:29:00.594Z,25.40
2018-05-16T19:31:28.075Z,25.40
2018-05-16T19:33:55.644Z,25.40
2018-05-16T19:36:23.193Z,25.40
2018-05-16T19:38:50.761Z,25.40
2018-05-16T19:41:18.345Z,25.40
2018-05-16T19:43:45.817Z,25.40
2018-05-16T19:46:13.384Z,25.40
2018-05-16T19:48:40.868Z,25.40
2018-05-16T19:51:08.369Z,25.40
2018-05-16T19:53:36.003Z,25.40
2018-05-16T19:56:03.570Z,25.40
2018-05-16T19:58:31.160Z,25.40
2018-05-16T20:00:58.552Z,25.40
2018-05-16T20:03:26.048Z,25.40
2018-05-16T20:05:54.373Z,25.40
2018-05-16T20:08:21.941Z,25.30
2018-05-16T20:10:49.526Z,25.30
2018-05-16T20:13:17.000Z,25.40
2018-05-16T20:15:44.477Z,25.30
2018-05-16T20:18:12.029Z,25.30
2018-05-16T20:20:39.602Z,25.30
2018-05-16T20:23:07.096Z,25.30
2018-05-16T20:25:34.606Z,25.30
2018-05-16T20:28:02.857Z,25.30
2018-05-16T20:30:30.326Z,25.30
2018-05-16T20:32:57.869Z,25.30
2018-05-16T20:35:25.345Z,25.30
2018-05-16T20:37:52.833Z,25.30
2018-05-16T20:40:20.476Z,25.30
2018-05-16T20:42:47.942Z,25.30
2018-05-16T20:45:15.500Z,25.30
2018-05-16T20:47:42.910Z,25.20
2018-05-16T20:50:10.484Z,25.30
2018-05-16T20:52:38.063Z,25.20
2018-05-16T20:55:05.560Z,25.20
2018-05-16T20:57:33.808Z,25.20
2018-05-16T21:00:01.446Z,25.20
2018-05-16T21:02:29.040Z,25.20
2018-05-16T21:04:57.269Z,25.20
2018-05-16T21:07:25.539Z,25.20
2018-05-16T21:09:53.024Z,25.20
2018-05-16T21:12:20.505Z,25.20
2018-05-16T21:14:48.085Z,25.20
2018-05-16T21:17:15.681Z,25.20
2018-05-16T21:19:43.220Z,25.20
2018-05-16T21:22:10.712Z,25.20
2018-05-16T21:24:38.263Z,25.20
2018-05-16T21:27:05.741Z,25.20
2018-05-16T21:29:33.236Z,25.20
2018-05-16T21:32:00.762Z,25.20
2018-05-16T21:34:28.335Z,25.20
2018-05-16T21:36:55.830Z,25.20
2018-05-16T21:39:23.307Z,25.10
2018-05-16T21:41:50.833Z,25.10
2018-05-16T21:44:18.305Z,25.20
2018-05-16T21:46:45.788Z,25.10
2018-05-16T21:49:13.365Z,25.10
2018-05-16T21:51:40.863Z,25.10
2018-05-16T21:54:08.383Z,25.10
2018-05-16T21:56:36.007Z,25.10
2018-05-16T21:59:04.271Z,25.10
2018-05-16T22:01:31.837Z,25.10
2018-05-16T22:03:59.320Z,25.10
2018-05-16T22:06:26.877Z,25.10
2018-05-16T22:08:54.469Z,25.10
2018-05-16T22:11:22.108Z,25.10
2018-05-16T22:13:50.351Z,25.00
2018-05-16T22:16:18.590Z,25.00
2018-05-16T22:18:46.180Z,25.00
2018-05-16T22:21:13.656Z,25.00
2018-05-16T22:23:41.224Z,25.00
2018-05-16T22:26:08.710Z,25.00
2018-05-16T22:28:36.181Z,25.00
2018-05-16T22:31:09.203Z,25.00
2018-05-16T22:33:42.447Z,25.00
2018-05-16T22:36:16.385Z,25.00
2018-05-16T22:38:49.584Z,25.00
2018-05-16T22:41:22.789Z,25.00
2018-05-16T22:44:03.020Z,25.00
2018-05-16T22:46:30.536Z,24.90
2018-05-16T22:48:58.113Z,24.90
2018-05-16T22:51:25.590Z,24.90
2018-05-16T22:53:53.075Z,24.90
2018-05-16T22:56:20.557Z,25.00
2018-05-16T22:58:48.039Z,25.00
2018-05-16T23:01:15.500Z,25.00
2018-05-16T23:03:43.019Z,25.00
2018-05-16T23:06:10.505Z,24.90
2018-05-16T23:08:37.985Z,25.00
2018-05-16T23:11:05.549Z,25.00
2018-05-16T23:13:33.121Z,25.00
2018-05-16T23:16:00.775Z,24.90
2018-05-16T23:18:28.173Z,25.00
2018-05-16T23:20:55.644Z,25.00
2018-05-16T23:23:23.114Z,25.00
2018-05-16T23:25:50.595Z,24.90
2018-05-16T23:28:18.123Z,24.90
2018-05-16T23:30:46.462Z,24.90
2018-05-16T23:33:14.013Z,24.90
2018-05-16T23:35:41.591Z,24.90
2018-05-16T23:38:09.061Z,24.90
2018-05-16T23:40:36.624Z,24.90
2018-05-16T23:43:04.200Z,24.90
2018-05-16T23:45:31.745Z,24.90
2018-05-16T23:47:59.240Z,24.90
2018-05-16T23:50:26.701Z,24.90
2018-05-16T23:52:54.275Z,24.90
2018-05-16T23:55:21.844Z,24.90
2018-05-16T23:57:49.423Z,24.90
